createdAt,value
2018-06-14T00:00:12.000Z,28.7
2018-06-14T00:01:12.000Z,28.7
2018-06-14T00:03:12.000Z,28.8
2018-06-14T00:04:12.000Z,28.8
2018-06-14T00:05:12.000Z,28.9
2018-06-14T00:07:12.000Z,28.8
2018-06-14T00:09:12.000Z,28.8
2018-06-14T00:10:12.000Z,28.8
2018-06-14T00:12:12.000Z,28.8
2018-06-14T00:13:12.000Z,28.8
2018-06-14T00:14:12.000Z,28.8
2018-06-14T00:15:12.000Z,28.9
2018-06-14T00:17:12.000Z,28.9
2018-06-14T00:19:12.000Z,28.9
2018-06-14T00:20:12.000Z,28.9
2018-06-14T00:22:12.000Z,28.9
2018-06-14T00:23:12.000Z,28.9
2018-06-14T00:24:12.000Z,28.9
2018-06-14T00:26:12.000Z,28.9
2018-06-14T00:28:12.000Z,28.7
2018-06-14T00:29:12.000Z,28.7
2018-06-14T00:31:12.000Z,28.7
2018-06-14T00:32:12.000Z,28.7
2018-06-14T00:33:12.000Z,28.8
2018-06-14T00:35:12.000Z,28.8
2018-06-14T00:37:12.000Z,28.8
2018-06-14T00:38:12.000Z,28.8
2018-06-14T00:40:12.000Z,28.8
2018-06-14T00:42:12.000Z,28.8
2018-06-14T00:43:12.000Z,28.8
2018-06-14T00:45:12.000Z,28.8
2018-06-14T00:47:12.000Z,28.8
2018-06-14T00:49:12.000Z,28.6
2018-06-14T00:50:12.000Z,28.6
2018-06-14T00:51:12.000Z,28.7
2018-06-14T00:52:57.000Z,28.8
2018-06-14T00:54:12.000Z,28.7
2018-06-14T00:55:12.000Z,28.7
2018-06-14T00:56:12.000Z,28.7
2018-06-14T00:57:12.000Z,28.8
2018-06-14T00:59:11.000Z,28.8
2018-06-14T01:00:11.000Z,28.8
2018-06-14T01:02:11.000Z,28.8
2018-06-14T01:03:11.000Z,28.8
2018-06-14T01:05:11.000Z,28.8
2018-06-14T01:06:56.000Z,28.8
2018-06-14T01:08:11.000Z,28.7
2018-06-14T01:10:11.000Z,28.7
2018-06-14T01:12:11.000Z,28.6
2018-06-14T01:14:11.000Z,28.6
2018-06-14T01:15:11.000Z,28.6
2018-06-14T01:16:11.000Z,28.7
2018-06-14T01:17:11.000Z,28.8
2018-06-14T01:18:11.000Z,28.8
2018-06-14T01:20:11.000Z,28.8
2018-06-14T01:21:11.000Z,28.8
2018-06-14T01:23:11.000Z,28.8
2018-06-14T01:25:11.000Z,28.8
2018-06-14T01:27:11.000Z,28.7
2018-06-14T01:28:11.000Z,28.6
2018-06-14T01:29:11.000Z,28.7
2018-06-14T01:31:11.000Z,28.7
2018-06-14T01:33:11.000Z,28.6
2018-06-14T01:34:11.000Z,28.6
2018-06-14T01:36:11.000Z,28.7
2018-06-14T01:38:11.000Z,28.6
2018-06-14T01:39:11.000Z,28.7
2018-06-14T01:40:11.000Z,28.7
2018-06-14T01:41:11.000Z,28.7
2018-06-14T01:43:11.000Z,28.8
2018-06-14T01:45:11.000Z,28.7
2018-06-14T01:46:11.000Z,28.7
2018-06-14T01:47:11.000Z,28.8
2018-06-14T01:48:56.000Z,28.8
2018-06-14T01:50:11.000Z,28.8
2018-06-14T01:51:11.000Z,28.8
2018-06-14T01:53:11.000Z,28.8
2018-06-14T01:54:11.000Z,28.8
2018-06-14T01:56:11.000Z,28.8
2018-06-14T01:57:11.000Z,28.8
2018-06-14T01:58:11.000Z,28.8
2018-06-14T02:00:11.000Z,28.9
2018-06-14T02:01:11.000Z,28.9
2018-06-14T02:02:11.000Z,28.9
2018-06-14T02:04:11.000Z,28.9
2018-06-14T02:06:11.000Z,28.8
2018-06-14T02:07:11.000Z,28.8
2018-06-14T02:09:11.000Z,28.8
2018-06-14T02:10:11.000Z,28.8
2018-06-14T02:11:56.000Z,28.8
2018-06-14T02:13:11.000Z,28.7
2018-06-14T02:15:11.000Z,28.7
2018-06-14T02:17:11.000Z,28.7
2018-06-14T02:18:11.000Z,28.7
2018-06-14T02:20:11.000Z,28.7
2018-06-14T02:21:11.000Z,28.7
2018-06-14T02:22:11.000Z,28.7
2018-06-14T02:24:11.000Z,28.7
2018-06-14T02:26:11.000Z,28.7
2018-06-14T02:27:56.000Z,28.6
2018-06-14T02:29:11.000Z,28.6
2018-06-14T02:30:11.000Z,28.6
2018-06-14T02:31:11.000Z,28.6
2018-06-14T02:32:56.000Z,28.7
2018-06-14T02:34:11.000Z,28.7
2018-06-14T02:35:11.000Z,28.7
2018-06-14T02:36:11.000Z,28.8
2018-06-14T02:38:11.000Z,28.8
2018-06-14T02:39:11.000Z,28.7
2018-06-14T02:40:11.000Z,28.7
2018-06-14T02:42:11.000Z,28.7
2018-06-14T02:43:11.000Z,28.7
2018-06-14T02:44:56.000Z,28.8
2018-06-14T02:46:11.000Z,28.7
2018-06-14T02:48:11.000Z,28.6
2018-06-14T02:50:11.000Z,28.5
2018-06-14T02:52:11.000Z,28.5
2018-06-14T02:53:11.000Z,28.5
2018-06-14T02:55:11.000Z,28.6
2018-06-14T02:56:11.000Z,28.6
2018-06-14T02:58:11.000Z,28.6
2018-06-14T03:00:11.000Z,28.6
2018-06-14T03:01:11.000Z,28.5
2018-06-14T03:03:11.000Z,28.6
2018-06-14T03:04:11.000Z,28.6
2018-06-14T03:05:11.000Z,28.6
2018-06-14T03:07:11.000Z,28.6
2018-06-14T03:09:11.000Z,28.6
2018-06-14T03:10:11.000Z,28.6
2018-06-14T03:12:11.000Z,28.6
2018-06-14T03:14:11.000Z,28.6
2018-06-14T03:15:11.000Z,28.6
2018-06-14T03:17:11.000Z,28.6
2018-06-14T03:19:11.000Z,28.6
2018-06-14T03:20:11.000Z,28.6
2018-06-14T03:22:11.000Z,28.7
2018-06-14T03:23:11.000Z,28.7
2018-06-14T03:24:11.000Z,28.7
2018-06-14T03:26:11.000Z,28.8
2018-06-14T03:27:11.000Z,28.8
2018-06-14T03:29:11.000Z,28.8
2018-06-14T03:30:11.000Z,28.8
2018-06-14T03:31:11.000Z,28.9
2018-06-14T03:33:11.000Z,28.9
2018-06-14T03:35:11.000Z,28.8
2018-06-14T03:37:11.000Z,28.8
2018-06-14T03:39:11.000Z,28.7
2018-06-14T03:41:11.000Z,28.6
2018-06-14T03:42:11.000Z,28.6
2018-06-14T03:43:11.000Z,28.7
2018-06-14T03:45:11.000Z,28.7
2018-06-14T03:47:11.000Z,28.7
2018-06-14T03:49:11.000Z,28.6
2018-06-14T03:50:11.000Z,28.7
2018-06-14T03:52:11.000Z,28.7
2018-06-14T03:54:11.000Z,28.7
2018-06-14T03:56:11.000Z,28.7
2018-06-14T03:57:11.000Z,28.8
2018-06-14T03:58:56.000Z,28.8
2018-06-14T04:00:11.000Z,28.8
2018-06-14T04:01:11.000Z,28.8
2018-06-14T04:02:11.000Z,28.9
2018-06-14T04:04:11.000Z,29
2018-06-14T04:06:11.000Z,28.9
2018-06-14T04:07:11.000Z,28.9
2018-06-14T04:09:11.000Z,28.9
2018-06-14T04:11:11.000Z,28.9
2018-06-14T04:12:11.000Z,28.9
2018-06-14T04:14:11.000Z,28.9
2018-06-14T04:16:11.000Z,28.9
2018-06-14T04:17:11.000Z,28.8
2018-06-14T04:19:11.000Z,28.8
2018-06-14T04:21:11.000Z,28.8
2018-06-14T04:22:11.000Z,28.8
2018-06-14T04:24:11.000Z,28.8
2018-06-14T04:26:11.000Z,28.8
2018-06-14T04:28:11.000Z,28.7
2018-06-14T04:30:11.000Z,28
2018-06-14T04:31:11.000Z,27.7
2018-06-14T04:33:11.000Z,27
2018-06-14T04:34:11.000Z,26.7
2018-06-14T04:36:11.000Z,26.3
2018-06-14T04:37:11.000Z,26.2
2018-06-14T04:38:56.000Z,26
2018-06-14T04:40:11.000Z,25.8
2018-06-14T04:41:11.000Z,25.7
2018-06-14T04:42:11.000Z,25.7
2018-06-14T04:43:11.000Z,25.6
2018-06-14T04:44:11.000Z,25.6
2018-06-14T04:46:11.000Z,25.4
2018-06-14T04:47:11.000Z,25.4
2018-06-14T04:48:11.000Z,25.3
2018-06-14T04:50:11.000Z,25.3
2018-06-14T04:52:11.000Z,25.2
2018-06-14T04:53:11.000Z,25.2
2018-06-14T04:54:11.000Z,25.2
2018-06-14T04:56:11.000Z,25.2
2018-06-14T04:57:11.000Z,25.2
2018-06-14T04:59:11.000Z,25.1
2018-06-14T05:01:11.000Z,25
2018-06-14T05:03:11.000Z,24.9
2018-06-14T05:05:11.000Z,24.8
2018-06-14T05:07:11.000Z,24.8
2018-06-14T05:09:11.000Z,24.7
2018-06-14T05:11:11.000Z,24.7
2018-06-14T05:13:11.000Z,24.7
2018-06-14T05:14:11.000Z,24.8
2018-06-14T05:15:11.000Z,24.9
2018-06-14T05:17:11.000Z,25
2018-06-14T05:18:11.000Z,25
2018-06-14T05:20:11.000Z,25.1
2018-06-14T05:22:11.000Z,25.1
2018-06-14T05:23:11.000Z,25.2
2018-06-14T05:24:11.000Z,25.3
2018-06-14T05:25:11.000Z,25.4
2018-06-14T05:27:11.000Z,25.5
2018-06-14T05:28:11.000Z,25.5
2018-06-14T05:30:11.000Z,25.5
2018-06-14T05:31:11.000Z,25.5
2018-06-14T05:32:56.000Z,25.6
2018-06-14T05:34:11.000Z,25.5
2018-06-14T05:35:11.000Z,25.5
2018-06-14T05:37:11.000Z,25.5
2018-06-14T05:39:11.000Z,25.5
2018-06-14T05:40:11.000Z,25.5
2018-06-14T05:42:11.000Z,25.5
2018-06-14T05:44:11.000Z,25.6
2018-06-14T05:46:11.000Z,25.5
2018-06-14T05:48:11.000Z,25.4
2018-06-14T05:50:11.000Z,25.4
2018-06-14T05:51:11.000Z,25.4
2018-06-14T05:53:11.000Z,25.4
2018-06-14T05:54:11.000Z,25.4
2018-06-14T05:56:11.000Z,25.5
2018-06-14T05:58:11.000Z,25.5
2018-06-14T06:00:11.000Z,25.4
2018-06-14T06:02:11.000Z,25.4
2018-06-14T06:03:56.000Z,25.4
2018-06-14T06:05:11.000Z,25.4
2018-06-14T06:06:11.000Z,25.5
2018-06-14T06:07:11.000Z,25.5
2018-06-14T06:08:11.000Z,25.6
2018-06-14T06:09:11.000Z,25.7
2018-06-14T06:11:11.000Z,25.8
2018-06-14T06:13:11.000Z,25.8
2018-06-14T06:14:11.000Z,25.8
2018-06-14T06:15:11.000Z,25.8
2018-06-14T06:16:11.000Z,25.9
2018-06-14T06:17:11.000Z,26
2018-06-14T06:19:11.000Z,26
2018-06-14T06:20:56.000Z,26
2018-06-14T06:22:11.000Z,25.9
2018-06-14T06:23:11.000Z,26
2018-06-14T06:25:11.000Z,26.1
2018-06-14T06:27:11.000Z,26.1
2018-06-14T06:28:11.000Z,26.2
2018-06-14T06:29:11.000Z,26.3
2018-06-14T06:30:11.000Z,26.4
2018-06-14T06:32:11.000Z,26.4
2018-06-14T06:34:11.000Z,26.5
2018-06-14T06:35:11.000Z,26.6
2018-06-14T06:37:11.000Z,26.6
2018-06-14T06:38:11.000Z,26.6
2018-06-14T06:39:56.000Z,26.6
2018-06-14T06:41:11.000Z,26.6
2018-06-14T06:43:11.000Z,26.5
2018-06-14T06:45:11.000Z,26.5
2018-06-14T06:46:11.000Z,26.5
2018-06-14T06:48:11.000Z,26.5
2018-06-14T06:49:11.000Z,26.5
2018-06-14T06:51:11.000Z,26.6
2018-06-14T06:52:11.000Z,26.7
2018-06-14T06:54:11.000Z,26.7
2018-06-14T06:56:11.000Z,26.7
2018-06-14T06:57:11.000Z,26.6
2018-06-14T06:59:11.000Z,26.6
2018-06-14T07:00:11.000Z,26.7
2018-06-14T07:02:11.000Z,26.8
2018-06-14T07:04:11.000Z,26.8
2018-06-14T07:05:11.000Z,26.8
2018-06-14T07:07:11.000Z,26.8
2018-06-14T07:09:11.000Z,26.9
2018-06-14T07:10:11.000Z,26.9
2018-06-14T07:12:11.000Z,27
2018-06-14T07:14:11.000Z,27.1
2018-06-14T07:15:11.000Z,27.1
2018-06-14T07:17:11.000Z,27.2
2018-06-14T07:18:11.000Z,27.2
2018-06-14T07:20:11.000Z,27.2
2018-06-14T07:22:11.000Z,27.2
2018-06-14T07:24:11.000Z,27.3
2018-06-14T07:25:11.000Z,27.4
2018-06-14T07:27:11.000Z,27.4
2018-06-14T07:28:11.000Z,27.5
2018-06-14T07:29:11.000Z,27.5
2018-06-14T07:31:11.000Z,27.6
2018-06-14T07:33:11.000Z,27.5
2018-06-14T07:35:11.000Z,27.5
2018-06-14T07:36:11.000Z,27.5
2018-06-14T07:37:11.000Z,27.6
2018-06-14T07:38:56.000Z,27.8
2018-06-14T07:40:11.000Z,27.8
2018-06-14T07:42:11.000Z,27.8
2018-06-14T07:43:11.000Z,27.8
2018-06-14T07:45:11.000Z,27.8
2018-06-14T07:46:11.000Z,27.9
2018-06-14T07:48:11.000Z,27.9
2018-06-14T07:50:11.000Z,27.9
2018-06-14T07:51:11.000Z,27.9
2018-06-14T07:53:11.000Z,28
2018-06-14T07:55:11.000Z,28
2018-06-14T07:57:11.000Z,28
2018-06-14T07:58:11.000Z,28.1
2018-06-14T08:00:11.000Z,28.1
2018-06-14T08:02:11.000Z,28.1
2018-06-14T08:03:11.000Z,28.2
2018-06-14T08:05:11.000Z,28.3
2018-06-14T08:07:11.000Z,28.3
2018-06-14T08:08:11.000Z,28.3
2018-06-14T08:10:11.000Z,28.4
2018-06-14T08:11:56.000Z,28.5
2018-06-14T08:13:11.000Z,28.6
2018-06-14T08:14:11.000Z,28.7
2018-06-14T08:15:11.000Z,28.8
2018-06-14T08:17:11.000Z,28.9
2018-06-14T08:19:11.000Z,29
2018-06-14T08:20:11.000Z,29
2018-06-14T08:22:11.000Z,29.1
2018-06-14T08:23:11.000Z,29.2
2018-06-14T08:24:12.000Z,29.1
2018-06-14T08:26:12.000Z,29.1
2018-06-14T08:28:12.000Z,29
2018-06-14T08:30:12.000Z,28.8
2018-06-14T08:31:12.000Z,28.8
2018-06-14T08:33:12.000Z,29
2018-06-14T08:35:12.000Z,29.1
2018-06-14T08:37:12.000Z,29.3
2018-06-14T08:39:12.000Z,29.3
2018-06-14T08:40:56.000Z,29.5
2018-06-14T08:42:12.000Z,29.7
2018-06-14T08:44:12.000Z,30
2018-06-14T08:46:12.000Z,29.9
2018-06-14T08:47:12.000Z,29.7
2018-06-14T08:49:12.000Z,29.3
2018-06-14T08:50:12.000Z,29.2
2018-06-14T08:52:12.000Z,29.1
2018-06-14T08:54:12.000Z,29
2018-06-14T08:56:12.000Z,29
2018-06-14T08:57:12.000Z,28.9
2018-06-14T08:59:12.000Z,28.9
2018-06-14T09:01:12.000Z,28.8
2018-06-14T09:02:12.000Z,28.7
2018-06-14T09:04:12.000Z,28.6
2018-06-14T09:05:12.000Z,28.6
2018-06-14T09:07:12.000Z,28.5
2018-06-14T09:09:12.000Z,28.4
2018-06-14T09:10:12.000Z,28.4
2018-06-14T09:12:12.000Z,28.4
2018-06-14T09:14:12.000Z,28.3
2018-06-14T09:15:12.000Z,28.3
2018-06-14T09:17:12.000Z,28.3
2018-06-14T09:18:56.000Z,28.3
2018-06-14T09:20:12.000Z,28.3
2018-06-14T09:22:12.000Z,28.3
2018-06-14T09:23:12.000Z,28.3
2018-06-14T09:24:12.000Z,28.3
2018-06-14T09:26:12.000Z,28.4
2018-06-14T09:28:11.000Z,28.4
2018-06-14T09:29:11.000Z,28.4
2018-06-14T09:31:11.000Z,28.5
2018-06-14T09:33:11.000Z,28.5
2018-06-14T09:35:11.000Z,28.5
2018-06-14T09:37:11.000Z,28.5
2018-06-14T09:39:11.000Z,28.5
2018-06-14T09:41:11.000Z,28.5
2018-06-14T09:42:11.000Z,28.5
2018-06-14T09:44:11.000Z,28.5
2018-06-14T09:45:11.000Z,28.5
2018-06-14T09:47:11.000Z,28.6
2018-06-14T09:49:11.000Z,28.5
2018-06-14T09:51:11.000Z,28.4
2018-06-14T09:52:11.000Z,28.5
2018-06-14T09:53:11.000Z,28.5
2018-06-14T09:55:11.000Z,28.6
2018-06-14T09:57:11.000Z,28.6
2018-06-14T09:58:11.000Z,28.6
2018-06-14T09:59:11.000Z,28.7
2018-06-14T10:01:11.000Z,28.8
2018-06-14T10:02:11.000Z,28.8
2018-06-14T10:04:11.000Z,28.8
2018-06-14T10:07:57.000Z,28.3
2018-06-14T10:08:57.000Z,28.3
2018-06-14T10:09:57.000Z,28.3
2018-06-14T10:10:57.000Z,28.4
2018-06-14T10:12:57.000Z,28.5
2018-06-14T10:13:57.000Z,28.6
2018-06-14T10:14:57.000Z,28.7
2018-06-14T10:16:57.000Z,28.9
2018-06-14T10:17:57.000Z,28.9
2018-06-14T10:19:57.000Z,28.9
2018-06-14T10:21:57.000Z,28.7
2018-06-14T10:23:57.000Z,28.7
2018-06-14T10:25:57.000Z,28.8
2018-06-14T10:27:57.000Z,28.8
2018-06-14T10:28:57.000Z,28.8
2018-06-14T10:35:43.000Z,28.1
2018-06-14T10:36:43.000Z,28.1
2018-06-14T10:38:43.000Z,28.3
2018-06-14T10:40:43.000Z,28.4
2018-06-14T10:42:43.000Z,28.5
2018-06-14T10:43:43.000Z,28.5
2018-06-14T10:44:43.000Z,28.5
2018-06-14T10:45:43.000Z,28.5
2018-06-14T10:47:28.000Z,28.7
2018-06-14T10:48:43.000Z,28.6
2018-06-14T10:50:43.000Z,28.6
2018-06-14T10:51:43.000Z,28.6
2018-06-14T10:53:43.000Z,28.7
2018-06-14T10:55:43.000Z,28.6
2018-06-14T10:57:28.000Z,28.6
2018-06-14T10:59:43.000Z,28.4
2018-06-14T11:00:43.000Z,28.4
2018-06-14T11:02:43.000Z,28.5
2018-06-14T11:03:43.000Z,28.5
2018-06-14T11:04:43.000Z,28.6
2018-06-14T11:06:43.000Z,28.7
2018-06-14T11:07:43.000Z,28.8
2018-06-14T11:09:43.000Z,28.8
2018-06-14T11:11:43.000Z,28.9
2018-06-14T11:12:43.000Z,28.9
2018-06-14T11:14:43.000Z,29
2018-06-14T11:16:28.000Z,29
2018-06-14T11:17:43.000Z,29
2018-06-14T11:19:43.000Z,29
2018-06-14T11:20:43.000Z,29
2018-06-14T11:22:43.000Z,29.1
2018-06-14T11:24:43.000Z,29
2018-06-14T11:26:43.000Z,29
2018-06-14T11:27:43.000Z,29
2018-06-14T11:29:43.000Z,29
2018-06-14T11:31:28.000Z,29.1
2018-06-14T11:32:43.000Z,29
2018-06-14T11:34:43.000Z,29.1
2018-06-14T11:36:44.000Z,29
2018-06-14T11:37:44.000Z,28.9
2018-06-14T11:39:44.000Z,29
2018-06-14T11:41:44.000Z,29
2018-06-14T11:42:44.000Z,29
2018-06-14T11:44:29.000Z,29.1
2018-06-14T11:45:44.000Z,29.1
2018-06-14T11:47:44.000Z,28.9
2018-06-14T11:48:44.000Z,28.9
2018-06-14T11:50:44.000Z,28.9
2018-06-14T11:52:44.000Z,28.9
2018-06-14T11:53:44.000Z,28.8
2018-06-14T11:55:44.000Z,28.6
2018-06-14T11:57:44.000Z,28.4
2018-06-14T11:58:44.000Z,28.4
2018-06-14T12:00:44.000Z,28.3
2018-06-14T12:01:44.000Z,28.3
2018-06-14T12:03:44.000Z,28.4
2018-06-14T12:05:44.000Z,28.1
2018-06-14T12:07:44.000Z,28.1
2018-06-14T12:09:44.000Z,28.1
2018-06-14T12:11:44.000Z,28.2
2018-06-14T12:13:44.000Z,28.2
2018-06-14T12:14:44.000Z,28.2
2018-06-14T12:15:44.000Z,28.3
2018-06-14T12:17:44.000Z,28.4
2018-06-14T12:19:44.000Z,28.4
2018-06-14T12:21:44.000Z,28.4
2018-06-14T12:22:44.000Z,28.4
2018-06-14T12:24:44.000Z,28.5
2018-06-14T12:25:44.000Z,28.5
2018-06-14T12:27:44.000Z,28.6
2018-06-14T12:29:44.000Z,28.5
2018-06-14T12:30:44.000Z,28.5
2018-06-14T12:32:44.000Z,28.5
2018-06-14T12:33:44.000Z,28.5
2018-06-14T12:35:29.000Z,28.4
2018-06-14T12:36:44.000Z,28.4
2018-06-14T12:38:29.000Z,28.5
2018-06-14T12:39:44.000Z,28.6
2018-06-14T12:40:44.000Z,28.6
2018-06-14T12:41:44.000Z,28.8
2018-06-14T12:43:44.000Z,28.9
2018-06-14T12:45:44.000Z,28.8
2018-06-14T12:46:44.000Z,28.7
2018-06-14T12:48:44.000Z,28.7
2018-06-14T12:49:44.000Z,28.7
2018-06-14T12:51:44.000Z,28.7
2018-06-14T12:53:44.000Z,28.6
2018-06-14T12:55:44.000Z,28.4
2018-06-14T12:57:44.000Z,28.3
2018-06-14T12:59:44.000Z,28.3
2018-06-14T13:00:44.000Z,28.3
2018-06-14T13:02:29.000Z,28.4
2018-06-14T13:03:44.000Z,28.4
2018-06-14T13:04:44.000Z,28.4
2018-06-14T13:05:44.000Z,28.5
2018-06-14T13:07:44.000Z,28.6
2018-06-14T13:09:44.000Z,28.7
2018-06-14T13:10:44.000Z,28.7
2018-06-14T13:12:44.000Z,28.7
2018-06-14T13:13:44.000Z,28.7
2018-06-14T13:14:44.000Z,28.7
2018-06-14T13:16:44.000Z,28.7
2018-06-14T13:17:44.000Z,28.7
2018-06-14T13:18:44.000Z,28.6
2018-06-14T13:19:44.000Z,28.6
2018-06-14T13:21:29.000Z,28.6
2018-06-14T13:22:44.000Z,28.6
2018-06-14T13:24:44.000Z,28.4
2018-06-14T13:25:44.000Z,28.4
2018-06-14T13:26:44.000Z,28.4
2018-06-14T13:28:44.000Z,28.4
2018-06-14T13:29:44.000Z,28.3
2018-06-14T13:31:44.000Z,28.3
2018-06-14T13:32:44.000Z,28.3
2018-06-14T13:34:44.000Z,28.2
2018-06-14T13:35:44.000Z,28.2
2018-06-14T13:37:44.000Z,28.3
2018-06-14T13:38:44.000Z,28.3
2018-06-14T13:40:44.000Z,28.3
2018-06-14T13:42:44.000Z,28.3
2018-06-14T13:44:44.000Z,28.2
2018-06-14T13:46:44.000Z,28.1
2018-06-14T13:47:44.000Z,28.1
2018-06-14T13:49:44.000Z,28.1
2018-06-14T13:51:44.000Z,28
2018-06-14T13:52:44.000Z,28
2018-06-14T13:53:44.000Z,28.1
2018-06-14T13:55:44.000Z,28.1
2018-06-14T13:56:44.000Z,28.1
2018-06-14T13:57:44.000Z,28.2
2018-06-14T13:59:44.000Z,28
2018-06-14T14:00:44.000Z,28
2018-06-14T14:02:44.000Z,27.9
2018-06-14T14:04:44.000Z,27.9
2018-06-14T14:06:44.000Z,27.8
2018-06-14T14:08:44.000Z,27.8
2018-06-14T14:09:44.000Z,27.7
2018-06-14T14:10:44.000Z,27.8
2018-06-14T14:12:29.000Z,27.8
2018-06-14T14:13:44.000Z,27.8
2018-06-14T14:15:44.000Z,27.7
2018-06-14T14:17:29.000Z,27.7
2018-06-14T14:18:44.000Z,27.7
2018-06-14T14:20:44.000Z,27.7
2018-06-14T14:21:44.000Z,27.7
2018-06-14T14:23:44.000Z,27.9
2018-06-14T14:25:44.000Z,28
2018-06-14T14:27:29.000Z,28.2
2018-06-14T14:28:44.000Z,28.3
2018-06-14T14:29:44.000Z,28.4
2018-06-14T14:31:44.000Z,28.5
2018-06-14T14:32:44.000Z,28.6
2018-06-14T14:33:44.000Z,28.7
2018-06-14T14:35:29.000Z,28.9
2018-06-14T14:36:44.000Z,28.9
2018-06-14T14:37:44.000Z,28.9
2018-06-14T14:38:44.000Z,29
2018-06-14T14:40:44.000Z,29
2018-06-14T14:41:44.000Z,29
2018-06-14T14:42:44.000Z,29.1
2018-06-14T14:44:44.000Z,29.2
2018-06-14T14:46:43.000Z,29.2
2018-06-14T14:47:43.000Z,29.2
2018-06-14T14:49:43.000Z,29.2
2018-06-14T14:50:43.000Z,29.2
2018-06-14T14:52:43.000Z,29.2
2018-06-14T14:53:43.000Z,29.2
2018-06-14T14:55:43.000Z,29.2
2018-06-14T14:57:43.000Z,29.3
2018-06-14T14:59:43.000Z,29.3
2018-06-14T15:01:43.000Z,29.3
2018-06-14T15:03:43.000Z,29.3
2018-06-14T15:05:43.000Z,29.3
2018-06-14T15:07:43.000Z,29.4
2018-06-14T15:09:43.000Z,29.4
2018-06-14T15:11:43.000Z,29.4
2018-06-14T15:12:43.000Z,29.5
2018-06-14T15:13:43.000Z,29.5
2018-06-14T15:15:43.000Z,29.6
2018-06-14T15:16:43.000Z,29.6
2018-06-14T15:17:43.000Z,29.7
2018-06-14T15:19:43.000Z,29.8
2018-06-14T15:21:43.000Z,29.8
2018-06-14T15:23:43.000Z,29.8
2018-06-14T15:24:43.000Z,29.8
2018-06-14T15:26:43.000Z,29.8
2018-06-14T15:27:43.000Z,29.8
2018-06-14T15:28:43.000Z,29.9
2018-06-14T15:29:43.000Z,29.9
2018-06-14T15:31:43.000Z,30
2018-06-14T15:33:28.000Z,30
2018-06-14T15:34:43.000Z,29.9
2018-06-14T15:36:43.000Z,29.8
2018-06-14T15:38:43.000Z,29.7
2018-06-14T15:40:43.000Z,29.6
2018-06-14T15:42:28.000Z,29.6
2018-06-14T15:43:43.000Z,29.6
2018-06-14T15:44:43.000Z,29.6
2018-06-14T15:46:43.000Z,29.7
2018-06-14T15:48:43.000Z,29.6
2018-06-14T15:50:44.000Z,29.6
2018-06-14T15:51:44.000Z,29.6
2018-06-14T15:52:44.000Z,29.7
2018-06-14T15:54:44.000Z,29.7
2018-06-14T15:56:44.000Z,29.6
2018-06-14T15:58:44.000Z,29.5
2018-06-14T16:00:44.000Z,29.5
2018-06-14T16:02:44.000Z,29.4
2018-06-14T16:04:44.000Z,29.4
2018-06-14T16:06:44.000Z,29.4
2018-06-14T16:07:44.000Z,29.4
2018-06-14T16:09:44.000Z,29.4
2018-06-14T16:11:44.000Z,29.4
2018-06-14T16:13:44.000Z,29.3
2018-06-14T16:15:44.000Z,29.3
2018-06-14T16:16:44.000Z,29.3
2018-06-14T16:17:44.000Z,29.4
2018-06-14T16:18:44.000Z,29.5
2018-06-14T16:19:44.000Z,29.6
2018-06-14T16:21:44.000Z,29.6
2018-06-14T16:22:44.000Z,29.7
2018-06-14T16:23:44.000Z,29.7
2018-06-14T16:25:44.000Z,29.8
2018-06-14T16:26:44.000Z,29.8
2018-06-14T16:28:44.000Z,29.7
2018-06-14T16:30:44.000Z,29.7
2018-06-14T16:31:44.000Z,29.7
2018-06-14T16:33:44.000Z,29.7
2018-06-14T16:35:44.000Z,29.6
2018-06-14T16:37:44.000Z,29.5
2018-06-14T16:38:44.000Z,29.5
2018-06-14T16:40:44.000Z,29.5
2018-06-14T16:41:44.000Z,29.5
2018-06-14T16:43:44.000Z,29.6
2018-06-14T16:45:44.000Z,29.5
2018-06-14T16:47:44.000Z,29.5
2018-06-14T16:49:44.000Z,29.5
2018-06-14T16:50:44.000Z,29.5
2018-06-14T16:52:44.000Z,29.5
2018-06-14T16:54:43.000Z,29.4
2018-06-14T16:55:43.000Z,29.4
2018-06-14T16:57:43.000Z,29.4
2018-06-14T16:59:43.000Z,29.4
2018-06-14T17:00:43.000Z,29.4
2018-06-14T17:02:28.000Z,29.5
2018-06-14T17:03:43.000Z,29.4
2018-06-14T17:04:43.000Z,29.4
2018-06-14T17:05:43.000Z,29.5
2018-06-14T17:07:43.000Z,29.5
2018-06-14T17:09:43.000Z,29.5
2018-06-14T17:10:43.000Z,29.5
2018-06-14T17:11:43.000Z,29.5
2018-06-14T17:13:43.000Z,29.5
2018-06-14T17:14:43.000Z,29.5
2018-06-14T17:15:43.000Z,29.6
2018-06-14T17:17:43.000Z,29.6
2018-06-14T17:19:43.000Z,29.5
2018-06-14T17:20:43.000Z,29.4
2018-06-14T17:22:28.000Z,29.5
2018-06-14T17:23:43.000Z,29.4
2018-06-14T17:25:43.000Z,29.4
2018-06-14T17:27:43.000Z,29.4
2018-06-14T17:28:43.000Z,29.4
2018-06-14T17:30:43.000Z,29.4
2018-06-14T17:32:43.000Z,29.4
2018-06-14T17:33:43.000Z,29.4
2018-06-14T17:35:28.000Z,29.5
2018-06-14T17:36:43.000Z,29.5
2018-06-14T17:38:43.000Z,29.5
2018-06-14T17:40:28.000Z,29.5
2018-06-14T17:41:43.000Z,29.4
2018-06-14T17:43:28.000Z,29.5
2018-06-14T17:44:43.000Z,29.4
2018-06-14T17:45:43.000Z,29.4
2018-06-14T17:47:43.000Z,29.5
2018-06-14T17:49:43.000Z,29.5
2018-06-14T17:50:43.000Z,29.5
2018-06-14T17:51:43.000Z,29.5
2018-06-14T17:53:28.000Z,29.5
2018-06-14T17:54:43.000Z,29.5
2018-06-14T17:56:43.000Z,29.5
2018-06-14T17:57:43.000Z,29.5
2018-06-14T17:58:43.000Z,29.5
2018-06-14T17:59:43.000Z,29.6
2018-06-14T18:01:43.000Z,29.6
2018-06-14T18:02:43.000Z,29.6
2018-06-14T18:03:43.000Z,29.7
2018-06-14T18:05:43.000Z,29.7
2018-06-14T18:07:43.000Z,29.6
2018-06-14T18:08:43.000Z,29.6
2018-06-14T18:10:28.000Z,29.6
2018-06-14T18:11:43.000Z,29.5
2018-06-14T18:13:43.000Z,29.5
2018-06-14T18:15:43.000Z,29.5
2018-06-14T18:17:28.000Z,29.4
2018-06-14T18:18:43.000Z,29.4
2018-06-14T18:20:43.000Z,29.3
2018-06-14T18:22:43.000Z,29.3
2018-06-14T18:23:43.000Z,29.3
2018-06-14T18:25:43.000Z,29.3
2018-06-14T18:27:43.000Z,29.3
2018-06-14T18:28:43.000Z,29.3
2018-06-14T18:30:43.000Z,29.3
2018-06-14T18:32:43.000Z,29.3
2018-06-14T18:33:43.000Z,29.3
2018-06-14T18:35:43.000Z,29.3
2018-06-14T18:36:43.000Z,29.4
2018-06-14T18:37:43.000Z,29.4
2018-06-14T18:39:43.000Z,29.5
2018-06-14T18:40:43.000Z,29.5
2018-06-14T18:42:43.000Z,29.5
2018-06-14T18:43:43.000Z,29.5
2018-06-14T18:44:43.000Z,29.5
2018-06-14T18:46:43.000Z,29.5
2018-06-14T18:48:43.000Z,29.5
2018-06-14T18:49:43.000Z,29.5
2018-06-14T18:51:43.000Z,29.5
2018-06-14T18:53:43.000Z,29.5
2018-06-14T18:55:43.000Z,29.4
2018-06-14T18:57:43.000Z,29.3
2018-06-14T18:59:43.000Z,29.3
2018-06-14T19:00:44.000Z,29.4
2018-06-14T19:02:44.000Z,29.4
2018-06-14T19:04:44.000Z,29.4
2018-06-14T19:05:44.000Z,29.5
2018-06-14T19:07:44.000Z,29.5
2018-06-14T19:08:44.000Z,29.5
2018-06-14T19:09:44.000Z,29.6
2018-06-14T19:13:30.000Z,29.1
2018-06-14T19:14:30.000Z,29.1
2018-06-14T19:15:30.000Z,29.1
2018-06-14T19:17:14.000Z,29.2
2018-06-14T19:18:30.000Z,29.2
2018-06-14T19:19:30.000Z,29.3
2018-06-14T19:21:30.000Z,29.3
2018-06-14T19:22:30.000Z,29.4
2018-06-14T19:24:30.000Z,29.5
2018-06-14T19:25:30.000Z,29.5
2018-06-14T19:27:30.000Z,29.5
2018-06-14T19:28:30.000Z,29.4
2018-06-14T19:29:30.000Z,29.4
2018-06-14T19:31:30.000Z,29.4
2018-06-14T19:33:30.000Z,29.4
2018-06-14T19:34:30.000Z,29.3
2018-06-14T19:36:30.000Z,29.4
2018-06-14T19:37:30.000Z,29.4
2018-06-14T19:38:30.000Z,29.4
2018-06-14T19:40:30.000Z,29.4
2018-06-14T19:42:30.000Z,29.3
2018-06-14T19:43:30.000Z,29.3
2018-06-14T19:44:30.000Z,29.3
2018-06-14T19:46:30.000Z,29.3
2018-06-14T19:47:30.000Z,29.3
2018-06-14T19:49:30.000Z,29.4
2018-06-14T19:51:30.000Z,29.4
2018-06-14T19:53:30.000Z,29.3
2018-06-14T19:54:30.000Z,29.3
2018-06-14T19:56:30.000Z,29.3
2018-06-14T19:58:30.000Z,29.3
2018-06-14T19:59:30.000Z,29.3
2018-06-14T20:01:30.000Z,29.3
2018-06-14T20:03:30.000Z,29.3
2018-06-14T20:05:30.000Z,29.2
2018-06-14T20:06:30.000Z,29.2
2018-06-14T20:07:30.000Z,29.3
2018-06-14T20:08:30.000Z,29.3
2018-06-14T20:10:30.000Z,29.3
2018-06-14T20:11:30.000Z,29.4
2018-06-14T20:12:30.000Z,29.4
2018-06-14T20:14:30.000Z,29.5
2018-06-14T20:15:30.000Z,29.5
2018-06-14T20:16:30.000Z,29.5
2018-06-14T20:18:30.000Z,29.5
2018-06-14T20:20:30.000Z,29.4
2018-06-14T20:21:30.000Z,29.4
2018-06-14T20:23:30.000Z,29.4
2018-06-14T20:24:30.000Z,29.3
2018-06-14T20:26:30.000Z,29.3
2018-06-14T20:28:30.000Z,29.3
2018-06-14T20:30:30.000Z,29.3
2018-06-14T20:32:30.000Z,29.3
2018-06-14T20:33:30.000Z,29.3
2018-06-14T20:34:30.000Z,29.3
2018-06-14T20:36:30.000Z,29.3
2018-06-14T20:38:30.000Z,29.3
2018-06-14T20:40:30.000Z,29.2
2018-06-14T20:42:30.000Z,29.1
2018-06-14T20:43:30.000Z,29.2
2018-06-14T20:44:30.000Z,29.2
2018-06-14T20:45:30.000Z,29.2
2018-06-14T20:47:30.000Z,29.3
2018-06-14T20:48:30.000Z,29.3
2018-06-14T20:50:30.000Z,29.3
2018-06-14T20:51:30.000Z,29.4
2018-06-14T20:53:30.000Z,29.4
2018-06-14T20:54:30.000Z,29.4
2018-06-14T20:56:15.000Z,29.4